16°C Temp
10°C Dewpoint
68% Humidity
Temperature
24 KM/H
15 MPH
13 KTS
320°
North West

Wind Speed
Mostly Scattered
Clouds
Pressure 1021.92 (hPa) - 30.18 (in)
Visibility 6.2 (mi) - 10.0 (km)

Current Conditions
LEJR
Location 25(km)
Metar :LEJR 081330Z 32013KT 9999 SCT025 BKN030 16/10 Q1022
Wed 8th December 15:30 pm

Airport
  Metar Aviation API Data Provided by https://www.checkwx.com/ PHP scripts by weather34.com ©2021